Time;durP1;ratioP1;P1;durP2;ratioP2;P2;SDS_P1;SDS_P2;PMS_P1;PMS_P2;Temp;Humidity;BMP_temperature;BMP_pressure;BME280_temperature;BME280_humidity;BME280_pressure;Samples;Min_cycle;Max_cycle;Signal;HPM_P1;HPM_P2
2023/02/05 09:23:32;;;;;;;;;;;;;;;;;;5104222;27;19959;-80
2023/02/05 09:25:57;;;;;;;;;;;;;;;;;;5081289;28;21184;-80
2023/02/05 09:28:22;;;;;;;;;;;;;;;;;;5084377;28;20392;-80
2023/02/05 09:30:47;;;;;;;;;;;;;;;;;;5082987;28;20360;-79
2023/02/05 09:33:13;;;;;;;;;;;;;;;;;;5082853;28;19912;-80
2023/02/05 09:35:38;;;;;;;;;;;;;;;;;;5086672;28;19975;-80
2023/02/05 09:38:04;;;;;;;;;;;;;;;;;;5085198;28;20376;-79
2023/02/05 09:40:29;;;;;;;;;;;;;;;;;;5082570;28;20003;-78
2023/02/05 09:42:54;;;;;;;;;;;;;;;;;;5083216;28;20007;-82
2023/02/05 09:45:19;;;;;;;;;;;;;;;;;;5081913;28;19962;-83
2023/02/05 09:47:44;;;;;;;;;;;;;;;;;;5081737;28;19916;-88
2023/02/05 09:50:13;;;;;;;;;;;;;;;;;;5088774;28;20280;-86
2023/02/05 09:52:38;;;;;;;;;;;;;;;;;;5085242;28;20289;-86
2023/02/05 09:55:03;;;;;;;;;;;;;;;;;;5082277;28;19921;-88
2023/02/05 09:57:28;;;;;;;;;;;;;;;;;;5082311;28;19919;-86
2023/02/05 09:59:53;;;;;;;;;;;;;;;;;;5085927;28;19943;-87
2023/02/05 10:02:18;;;;;;;;;;;;;;;;;;5082617;28;20376;-87
2023/02/05 10:04:44;;;;;;;;;;;;;;;;;;5085977;28;19919;-87
2023/02/05 10:07:09;;;;;;;;;;;;;;;;;;5078459;28;19962;-86
2023/02/05 10:09:34;;;;;;;;;;;;;;;;;;5076924;28;21141;-87
2023/02/05 10:12:02;;;;;;;;;;;;;;;;;;5079910;28;19921;-86
2023/02/05 10:14:30;;;;;;;;;;;;;;;;;;5078500;28;19973;-87
2023/02/05 10:19:50;;;;;;;;;;;;;;;;;;5028237;28;19933;-87
2023/02/05 10:22:15;;;;;;;;;;;;;;;;;;5025595;28;20032;-87
2023/02/05 10:24:40;;;;;;;;;;;;;;;;;;5026766;28;19913;-86
2023/02/05 10:27:06;;;;;;;;;;;;;;;;;;5029045;28;19996;-87
2023/02/05 10:29:31;;;;;;;;;;;;;;;;;;5027243;28;20337;-85
2023/02/05 10:32:00;;;;;;;;;;;;;;;;;;5024447;28;19914;-86
2023/02/05 10:34:25;;;;;;;;;;;;;;;;;;5013025;28;19921;-87
2023/02/05 10:36:50;;;;;;;;;;;;;;;;;;5014906;28;19913;-86
2023/02/05 10:39:15;;;;;;;;;;;;;;;;;;5007638;28;20421;-86
2023/02/05 10:41:40;;;;;;;;;;;;;;;;;;5009574;28;20378;-86
2023/02/05 10:44:05;;;;;;;;;;;;;;;;;;5011206;28;20389;-86
2023/02/05 10:46:30;;;;;;;;;;;;;;;;;;5013188;28;20412;-86
2023/02/05 10:48:56;;;;;;;;;;;;;;;;;;5006566;28;19913;-86
2023/02/05 10:51:22;;;;;;;;;;;;;;;;;;5010522;28;19917;-83
2023/02/05 10:53:47;;;;;;;;;;;;;;;;;;5006081;28;19914;-83
2023/02/05 10:56:15;;;;;;;;;;;;;;;;;;5041201;28;20246;-83
2023/02/05 10:58:40;;;;;;;;;;;;;;;;;;5062726;28;19915;-84
2023/02/05 11:01:05;;;;;;;;;;;;;;;;;;5066411;28;19916;-83
2023/02/05 11:03:39;;;;;;;;;;;;;;;;;;5070919;28;19963;-83
2023/02/05 11:06:04;;;;;;;;;;;;;;;;;;5069995;28;19935;-84
2023/02/05 11:08:31;;;;;;;;;;;;;;;;;;5061286;28;19913;-84
2023/02/05 11:10:56;;;;;;;;;;;;;;;;;;5065420;28;20062;-83
2023/02/05 11:13:21;;;;;;;;;;;;;;;;;;5063395;28;19917;-84
2023/02/05 11:15:46;;;;;;;;;;;;;;;;;;5069623;28;19916;-84
2023/02/05 11:18:11;;;;;;;;;;;;;;;;;;5065303;28;19912;-83
2023/02/05 11:20:36;;;;;;;;;;;;;;;;;;5066474;28;19958;-84
2023/02/05 11:23:02;;;;;;;;;;;;;;;;;;5069051;28;20011;-84
2023/02/05 11:25:28;;;;;;;;;;;;;;;;;;5067271;28;19983;-84
2023/02/05 11:27:53;;;;;;;;;;;;;;;;;;5065824;28;20023;-89
2023/02/05 11:30:18;;;;;;;;;;;;;;;;;;5073198;28;20432;-88
2023/02/05 11:32:43;;;;;;;;;;;;;;;;;;5071110;28;19913;-91
2023/02/05 11:35:08;;;;;;;;;;;;;;;;;;5075471;22;19912;-83
2023/02/05 11:37:34;;;;;;;;;;;;;;;;;;5029806;28;19927;-83
2023/02/05 11:39:59;;;;;;;;;;;;;;;;;;5026909;28;19948;-84
2023/02/05 11:42:24;;;;;;;;;;;;;;;;;;5034086;28;19928;-83
2023/02/05 11:44:49;;;;;;;;;;;;;;;;;;5019330;28;19913;-83
2023/02/05 11:47:14;;;;;;;;;;;;;;;;;;5024903;28;19913;-84
2023/02/05 11:49:39;;;;;;;;;;;;;;;;;;5034065;28;20379;-85
2023/02/05 11:52:05;;;;;;;;;;;;;;;;;;5046305;28;19913;-85
2023/02/05 11:54:30;;;;;;;;;;;;;;;;;;5026684;28;19917;-85
2023/02/05 11:56:55;;;;;;;;;;;;;;;;;;5024928;28;20037;-84
2023/02/05 11:59:21;;;;;;;;;;;;;;;;;;5022915;28;19921;-84
2023/02/05 12:01:46;;;;;;;;;;;;;;;;;;5028168;28;19917;-84
2023/02/05 12:04:11;;;;;;;;;;;;;;;;;;5027776;28;20362;-84
2023/02/05 12:06:36;;;;;;;;;;;;;;;;;;5029163;28;20266;-85
2023/02/05 12:09:01;;;;;;;;;;;;;;;;;;5027576;28;20355;-85
2023/02/05 12:11:26;;;;;;;;;;;;;;;;;;5020733;28;19912;-85
2023/02/05 12:13:51;;;;;;;;;;;;;;;;;;5043697;28;20323;-84
2023/02/05 12:16:17;;;;;;;;;;;;;;;;;;5028317;28;20003;-85
2023/02/05 12:18:42;;;;;;;;;;;;;;;;;;5041203;28;19917;-85
2023/02/05 12:21:07;;;;;;;;;;;;;;;;;;5016560;28;20268;-84
2023/02/05 12:23:32;;;;;;;;;;;;;;;;;;5022763;28;19920;-84
2023/02/05 12:25:57;;;;;;;;;;;;;;;;;;5030311;28;19913;-84
2023/02/05 12:28:24;;;;;;;;;;;;;;;;;;5040195;28;20359;-85
2023/02/05 12:30:49;;;;;;;;;;;;;;;;;;5030522;28;20035;-85
2023/02/05 12:33:14;;;;;;;;;;;;;;;;;;5018299;28;19928;-87
2023/02/05 12:35:39;;;;;;;;;;;;;;;;;;5031446;28;19929;-85
2023/02/05 12:38:04;;;;;;;;;;;;;;;;;;5047187;28;19927;-83
2023/02/05 12:40:29;;;;;;;;;;;;;;;;;;5028917;28;19913;-83
2023/02/05 12:42:55;;;;;;;;;;;;;;;;;;5023523;28;19924;-85
2023/02/05 12:45:21;;;;;;;;;;;;;;;;;;5043792;28;20318;-85
2023/02/05 12:47:46;;;;;;;;;;;;;;;;;;5026102;28;19959;-84
2023/02/05 12:50:11;;;;;;;;;;;;;;;;;;5026867;28;19913;-85
2023/02/05 12:52:36;;;;;;;;;;;;;;;;;;5049454;28;19913;-85
2023/02/05 12:55:02;;;;;;;;;;;;;;;;;;5031807;28;19921;-85
2023/02/05 12:57:27;;;;;;;;;;;;;;;;;;5050511;28;19916;-85
2023/02/05 12:59:53;;;;;;;;;;;;;;;;;;5022729;28;20379;-84
2023/02/05 13:02:18;;;;;;;;;;;;;;;;;;5046410;28;19920;-84
2023/02/05 13:04:43;;;;;;;;;;;;;;;;;;5045990;28;19940;-84
2023/02/05 13:07:10;;;;;;;;;;;;;;;;;;5029295;28;19919;-84
2023/02/05 13:09:38;;;;;;;;;;;;;;;;;;5024956;28;20360;-85
2023/02/05 13:12:04;;;;;;;;;;;;;;;;;;5025764;28;19912;-83
2023/02/05 13:14:30;;;;;;;;;;;;;;;;;;5024471;28;20346;-84
2023/02/05 13:16:58;;;;;;;;;;;;;;;;;;5023484;28;20007;-84
2023/02/05 13:19:23;;;;;;;;;;;;;;;;;;5047944;28;19912;-87
2023/02/05 13:30:20;;;;;;;;;;;;;;;;;;4968868;28;19930;-81
2023/02/05 13:32:50;;;;;;;;;;;;;;;;;;4968548;28;19956;-81
2023/02/05 13:35:16;;;;;;;;;;;;;;;;;;4969832;28;19965;-82
2023/02/05 13:37:42;;;;;;;;;;;;;;;;;;4970507;28;19914;-82
2023/02/05 13:42:51;;;;;;;;;;;;;;;;;;5100910;22;19970;-85
2023/02/05 13:45:18;;;;;;;;;;;;;;;;;;5067124;28;19912;-93
2023/02/05 13:47:43;;;;;;;;;;;;;;;;;;5060396;28;19952;-86
2023/02/05 13:50:08;;;;;;;;;;;;;;;;;;5078823;28;19909;-83
2023/02/05 13:52:33;;;;;;;;;;;;;;;;;;5066639;28;19927;-84
2023/02/05 13:54:58;;;;;;;;;;;;;;;;;;5068999;28;19912;-81
2023/02/05 13:57:24;;;;;;;;;;;;;;;;;;5073461;28;20382;-80
2023/02/05 13:59:52;;;;;;;;;;;;;;;;;;5080900;28;19912;-81
2023/02/05 14:02:18;;;;;;;;;;;;;;;;;;5089019;28;20103;-81
2023/02/05 14:04:45;;;;;;;;;;;;;;;;;;5088716;28;20386;-79
2023/02/05 14:07:10;;;;;;;;;;;;;;;;;;5063680;28;19924;-78
2023/02/05 14:09:35;;;;;;;;;;;;;;;;;;5072412;28;19920;-85
2023/02/05 14:12:00;;;;;;;;;;;;;;;;;;5074383;28;19912;-81
2023/02/05 14:14:25;;;;;;;;;;;;;;;;;;5077182;28;19909;-80
2023/02/05 14:16:51;;;;;;;;;;;;;;;;;;5095717;28;19908;-80
2023/02/05 14:19:16;;;;;;;;;;;;;;;;;;5076671;28;19908;-81
2023/02/05 14:21:41;;;;;;;;;;;;;;;;;;5076129;28;19926;-80
2023/02/05 14:24:06;;;;;;;;;;;;;;;;;;5077067;28;19973;-80
2023/02/05 14:26:31;;;;;;;;;;;;;;;;;;5077528;28;19915;-79
2023/02/05 14:28:58;;;;;;;;;;;;;;;;;;5076736;28;19931;-80
2023/02/05 14:31:23;;;;;;;;;;;;;;;;;;5093337;28;19916;-81
2023/02/05 14:33:48;;;;;;;;;;;;;;;;;;5094758;28;20258;-80
2023/02/05 14:36:13;;;;;;;;;;;;;;;;;;5095316;28;19912;-81
2023/02/05 14:38:38;;;;;;;;;;;;;;;;;;5093603;28;19912;-80
2023/02/05 14:41:04;;;;;;;;;;;;;;;;;;5075612;28;19912;-80
2023/02/05 14:43:36;;;;;;;;;;;;;;;;;;5075560;28;19920;-80
2023/02/05 14:46:04;;;;;;;;;;;;;;;;;;5094956;28;20391;-82
2023/02/05 14:48:30;;;;;;;;;;;;;;;;;;5076230;28;19908;-80
2023/02/05 14:50:56;;;;;;;;;;;;;;;;;;5076576;28;19909;-80
2023/02/05 14:53:21;;;;;;;;;;;;;;;;;;5083522;28;19919;-80
2023/02/05 14:55:48;;;;;;;;;;;;;;;;;;5094710;28;19915;-80
2023/02/05 14:58:13;;;;;;;;;;;;;;;;;;5094543;28;19912;-80
2023/02/05 15:00:40;;;;;;;;;;;;;;;;;;5094573;28;19908;-80
2023/02/05 15:03:05;;;;;;;;;;;;;;;;;;5091995;28;20393;-80
2023/02/05 15:05:30;;;;;;;;;;;;;;;;;;5076657;28;19908;-80
2023/02/05 15:07:55;;;;;;;;;;;;;;;;;;5094549;28;19912;-81
2023/02/05 15:10:21;;;;;;;;;;;;;;;;;;5075646;28;19920;-81
2023/02/05 15:12:46;;;;;;;;;;;;;;;;;;5092094;28;19915;-81
2023/02/05 15:15:11;;;;;;;;;;;;;;;;;;5075522;28;20002;-81
2023/02/05 15:17:36;;;;;;;;;;;;;;;;;;5076307;28;19908;-80
2023/02/05 15:20:02;;;;;;;;;;;;;;;;;;5094131;28;20042;-81
2023/02/05 15:22:27;;;;;;;;;;;;;;;;;;5094806;28;19916;-82
2023/02/05 15:24:52;;;;;;;;;;;;;;;;;;5081143;28;19934;-80
2023/02/05 15:27:17;;;;;;;;;;;;;;;;;;5094833;28;19989;-80
2023/02/05 15:29:42;;;;;;;;;;;;;;;;;;5076050;28;20361;-80
2023/02/05 15:32:07;;;;;;;;;;;;;;;;;;5075927;28;19994;-79
2023/02/05 15:34:33;;;;;;;;;;;;;;;;;;5074469;28;19950;-81
2023/02/05 15:36:58;;;;;;;;;;;;;;;;;;5075525;28;19912;-80
2023/02/05 15:39:23;;;;;;;;;;;;;;;;;;5074820;28;19912;-80
2023/02/05 15:41:48;;;;;;;;;;;;;;;;;;5093874;28;20278;-80
2023/02/05 15:44:15;;;;;;;;;;;;;;;;;;5092085;28;19972;-80
2023/02/05 15:46:40;;;;;;;;;;;;;;;;;;5093434;28;20416;-81
2023/02/05 15:49:05;;;;;;;;;;;;;;;;;;5061760;28;19908;-79
2023/02/05 15:51:30;;;;;;;;;;;;;;;;;;5055886;28;19912;-79
2023/02/05 15:53:55;;;;;;;;;;;;;;;;;;5055503;28;19909;-79
2023/02/05 15:56:21;;;;;;;;;;;;;;;;;;5067767;28;19908;-79
2023/02/05 15:58:46;;;;;;;;;;;;;;;;;;5093587;28;19912;-79
2023/02/05 16:01:11;;;;;;;;;;;;;;;;;;5093769;28;19991;-80
2023/02/05 16:03:37;;;;;;;;;;;;;;;;;;5074891;28;20231;-80
2023/02/05 16:06:02;;;;;;;;;;;;;;;;;;5071120;28;19916;-80
2023/02/05 16:08:28;;;;;;;;;;;;;;;;;;5057924;28;19913;-80
2023/02/05 16:10:53;;;;;;;;;;;;;;;;;;5075386;28;19942;-80
2023/02/05 16:13:19;;;;;;;;;;;;;;;;;;5075416;28;19916;-79
2023/02/05 16:15:44;;;;;;;;;;;;;;;;;;5091965;28;19912;-80
2023/02/05 16:18:09;;;;;;;;;;;;;;;;;;5071538;28;19912;-80
2023/02/05 16:20:35;;;;;;;;;;;;;;;;;;5075494;28;19909;-80
2023/02/05 16:23:00;;;;;;;;;;;;;;;;;;5074997;28;20362;-81
2023/02/05 16:25:25;;;;;;;;;;;;;;;;;;5075030;28;19951;-80
2023/02/05 16:27:50;;;;;;;;;;;;;;;;;;5074575;28;19918;-79
2023/02/05 16:30:15;;;;;;;;;;;;;;;;;;5074512;28;20004;-80
2023/02/05 16:32:43;;;;;;;;;;;;;;;;;;5074311;28;19915;-80
2023/02/05 16:35:08;;;;;;;;;;;;;;;;;;5074721;28;19908;-80
2023/02/05 16:37:34;;;;;;;;;;;;;;;;;;5091734;28;19912;-80
2023/02/05 16:39:59;;;;;;;;;;;;;;;;;;5076774;28;19912;-80
2023/02/05 16:42:24;;;;;;;;;;;;;;;;;;5071090;28;19924;-80
2023/02/05 16:44:51;;;;;;;;;;;;;;;;;;5071492;28;20371;-80
2023/02/05 16:47:16;;;;;;;;;;;;;;;;;;5074800;28;19966;-80
2023/02/05 16:49:41;;;;;;;;;;;;;;;;;;5086355;28;19955;-80
2023/02/05 16:52:06;;;;;;;;;;;;;;;;;;5074539;28;19908;-81
2023/02/05 16:54:31;;;;;;;;;;;;;;;;;;5092749;28;19994;-80
2023/02/05 16:56:56;;;;;;;;;;;;;;;;;;5074577;28;19908;-80
2023/02/05 16:59:22;;;;;;;;;;;;;;;;;;5073024;28;19912;-80
2023/02/05 17:01:47;;;;;;;;;;;;;;;;;;5074040;28;19955;-80
2023/02/05 17:04:12;;;;;;;;;;;;;;;;;;5091980;28;19915;-80
2023/02/05 17:06:37;;;;;;;;;;;;;;;;;;5054604;28;19916;-80
2023/02/05 17:09:03;;;;;;;;;;;;;;;;;;5077600;28;19918;-80
2023/02/05 17:11:29;;;;;;;;;;;;;;;;;;5074546;28;19915;-80
2023/02/05 17:13:54;;;;;;;;;;;;;;;;;;5092552;28;19916;-80
2023/02/05 17:16:19;;;;;;;;;;;;;;;;;;5092434;28;19916;-80
2023/02/05 17:18:44;;;;;;;;;;;;;;;;;;5091915;28;19943;-80
2023/02/05 17:21:10;;;;;;;;;;;;;;;;;;5091487;28;20388;-80
2023/02/05 17:23:35;;;;;;;;;;;;;;;;;;5092662;28;19934;-80
2023/02/05 17:26:00;;;;;;;;;;;;;;;;;;5092793;28;19954;-80
2023/02/05 17:28:25;;;;;;;;;;;;;;;;;;5074323;28;19915;-80
2023/02/05 17:30:50;;;;;;;;;;;;;;;;;;5091383;28;19920;-80
2023/02/05 17:33:15;;;;;;;;;;;;;;;;;;5092191;28;19908;-79
2023/02/05 17:35:41;;;;;;;;;;;;;;;;;;5092735;28;19904;-80
2023/02/05 17:38:06;;;;;;;;;;;;;;;;;;5073529;28;19908;-79
2023/02/05 17:40:31;;;;;;;;;;;;;;;;;;5070002;28;19919;-80
2023/02/05 17:42:56;;;;;;;;;;;;;;;;;;5091793;28;19931;-80
2023/02/05 17:45:21;;;;;;;;;;;;;;;;;;5096666;28;19908;-79
2023/02/05 17:47:46;;;;;;;;;;;;;;;;;;5078433;28;20015;-80
2023/02/05 17:50:11;;;;;;;;;;;;;;;;;;5096294;28;20392;-80
2023/02/05 17:52:37;;;;;;;;;;;;;;;;;;5085125;28;20353;-80
2023/02/05 17:55:02;;;;;;;;;;;;;;;;;;5078127;28;20366;-80
2023/02/05 17:57:27;;;;;;;;;;;;;;;;;;5074138;28;20387;-80
2023/02/05 17:59:54;;;;;;;;;;;;;;;;;;5074579;28;19978;-79
2023/02/05 18:02:20;;;;;;;;;;;;;;;;;;5083918;28;20015;-80
2023/02/05 18:04:45;;;;;;;;;;;;;;;;;;5095685;28;20284;-80
2023/02/05 18:07:10;;;;;;;;;;;;;;;;;;5095870;28;19912;-80
2023/02/05 18:09:36;;;;;;;;;;;;;;;;;;5076377;28;19912;-80
2023/02/05 18:12:01;;;;;;;;;;;;;;;;;;5093983;28;19919;-81
2023/02/05 18:14:26;;;;;;;;;;;;;;;;;;5072644;28;19912;-80
2023/02/05 18:16:51;;;;;;;;;;;;;;;;;;5074231;28;19908;-80
2023/02/05 18:19:16;;;;;;;;;;;;;;;;;;5074842;28;20048;-79
2023/02/05 18:21:41;;;;;;;;;;;;;;;;;;5074149;28;19916;-79
2023/02/05 18:24:07;;;;;;;;;;;;;;;;;;5086964;28;20294;-79
2023/02/05 18:26:32;;;;;;;;;;;;;;;;;;5074078;28;19965;-80
2023/02/05 18:28:57;;;;;;;;;;;;;;;;;;5074852;28;20286;-80
2023/02/05 18:31:22;;;;;;;;;;;;;;;;;;5087753;28;19912;-77
2023/02/05 18:33:47;;;;;;;;;;;;;;;;;;5089189;28;19912;-80
2023/02/05 18:36:13;;;;;;;;;;;;;;;;;;5074472;28;19973;-79
2023/02/05 18:38:38;;;;;;;;;;;;;;;;;;5074514;28;20100;-79
2023/02/05 18:41:03;;;;;;;;;;;;;;;;;;5075441;28;19920;-79
2023/02/05 18:43:28;;;;;;;;;;;;;;;;;;5067172;28;20051;-80
2023/02/05 18:45:53;;;;;;;;;;;;;;;;;;5053530;28;19975;-81
2023/02/05 18:48:18;;;;;;;;;;;;;;;;;;5035817;28;19913;-83
2023/02/05 18:50:43;;;;;;;;;;;;;;;;;;5035959;28;19952;-79
2023/02/05 18:53:09;;;;;;;;;;;;;;;;;;5068301;28;19913;-79
2023/02/05 18:55:35;;;;;;;;;;;;;;;;;;5031211;28;20012;-79
2023/02/05 18:58:00;;;;;;;;;;;;;;;;;;5054051;28;20398;-79
2023/02/05 19:00:25;;;;;;;;;;;;;;;;;;5038009;28;20390;-78
2023/02/05 19:02:50;;;;;;;;;;;;;;;;;;5059542;28;19917;-78
2023/02/05 19:05:15;;;;;;;;;;;;;;;;;;5027302;28;20011;-79
2023/02/05 19:07:43;;;;;;;;;;;;;;;;;;5032077;28;19967;-79
2023/02/05 19:10:08;;;;;;;;;;;;;;;;;;5045740;28;19963;-79
